Aviation Digital Data Service (ADDS)

Output produced by METARs form (2112 UTC 16 February 2019)
found at http://www.aviationweather.gov/metar/data/
 
METAR text: MGSJ 162100Z 18016KT 7000 SKC 30/25 Q1009 A2980 HZ
Conditions at: MGSJ (SAN JOSE (CIV/M , GT) observed 2100 UTC 16 February 2019
Temperature: 30.0°C (86°F)
Dewpoint: 25.0°C (77°F) [RH = 75%]
Pressure (altimeter): 29.79 inches Hg (1009.0 mb)
Winds: from the S (180 degrees) at 18 MPH (16 knots; 8.2 m/s)
Visibility: 4 miles ( 7 km)
Ceiling: at least 12,000 feet AGL
Clouds: clear skies
Weather: HZ  (haze)

METAR text: MGSJ 162000Z 18012KT 8000 SKC 31/24 Q1010 A2983 HZ
Conditions at: MGSJ (SAN JOSE (CIV/M , GT) observed 2000 UTC 16 February 2019
Temperature: 31.0°C (88°F)
Dewpoint: 24.0°C (75°F) [RH = 66%]
Pressure (altimeter): 29.82 inches Hg (1010.0 mb)
Winds: from the S (180 degrees) at 14 MPH (12 knots; 6.2 m/s)
Visibility: 5 miles ( 8 km)
Ceiling: at least 12,000 feet AGL
Clouds: clear skies
Weather: HZ  (haze)

METAR text: MGSJ 161900Z 18012KT 8000 FEW022 32/24 Q1011 A2985 HZ
Conditions at: MGSJ (SAN JOSE (CIV/M , GT) observed 1900 UTC 16 February 2019
Temperature: 32.0°C (90°F)
Dewpoint: 24.0°C (75°F) [RH = 63%]
Pressure (altimeter): 29.85 inches Hg (1011.0 mb)
Winds: from the S (180 degrees) at 14 MPH (12 knots; 6.2 m/s)
Visibility: 5 miles ( 8 km)
Ceiling: at least 12,000 feet AGL
Clouds: few clouds at 2200 feet AGL
Weather: HZ  (haze)

METAR text: MGSJ 161800Z 18010KT 8000 FEW022 33/23 Q1011 A2985 HZ
Conditions at: MGSJ (SAN JOSE (CIV/M , GT) observed 1800 UTC 16 February 2019
Temperature: 33.0°C (91°F)
Dewpoint: 23.0°C (73°F) [RH = 56%]
Pressure (altimeter): 29.85 inches Hg (1011.0 mb)
Winds: from the S (180 degrees) at 12 MPH (10 knots; 5.1 m/s)
Visibility: 5 miles ( 8 km)
Ceiling: at least 12,000 feet AGL
Clouds: few clouds at 2200 feet AGL
Weather: HZ  (haze)

METAR text: MGSJ 161700Z 16008KT 8000 FEW020 32/24 Q1012 A2988 HZ
Conditions at: MGSJ (SAN JOSE (CIV/M , GT) observed 1700 UTC 16 February 2019
Temperature: 32.0°C (90°F)
Dewpoint: 24.0°C (75°F) [RH = 63%]
Pressure (altimeter): 29.88 inches Hg (1012.0 mb)
Winds: from the SSE (160 degrees) at 9 MPH (8 knots; 4.1 m/s)
Visibility: 5 miles ( 8 km)
Ceiling: at least 12,000 feet AGL
Clouds: few clouds at 2000 feet AGL
Weather: HZ  (haze)

METAR text: MGSJ 161600Z 12004KT 8000 SCT018 31/24 Q1013 A2991 HZ
Conditions at: MGSJ (SAN JOSE (CIV/M , GT) observed 1600 UTC 16 February 2019
Temperature: 31.0°C (88°F)
Dewpoint: 24.0°C (75°F) [RH = 66%]
Pressure (altimeter): 29.91 inches Hg (1013.0 mb)
Winds: from the ESE (120 degrees) at 5 MPH (4 knots; 2.1 m/s)
Visibility: 5 miles ( 8 km)
Ceiling: at least 12,000 feet AGL
Clouds: scattered clouds at 1800 feet AGL
Weather: HZ  (haze)

METAR text: MGSJ 161500Z 00000KT 8000 FEW018 29/25 Q1013 A2991 HZ METAR
Conditions at: MGSJ (SAN JOSE (CIV/M , GT) observed 1500 UTC 16 February 2019
Temperature: 29.0°C (84°F)
Dewpoint: 25.0°C (77°F) [RH = 79%]
Pressure (altimeter): 29.91 inches Hg (1013.0 mb)
Winds: calm
Visibility: 5 miles ( 8 km)
Ceiling: at least 12,000 feet AGL
Clouds: few clouds at 1800 feet AGL
Weather: HZ  (haze)

METAR text: MGSJ 161400Z 00000KT 7000 FEW020 26/24 Q1013 A2991 BR
Conditions at: MGSJ (SAN JOSE (CIV/M , GT) observed 1400 UTC 16 February 2019
Temperature: 26.0°C (79°F)
Dewpoint: 24.0°C (75°F) [RH = 89%]
Pressure (altimeter): 29.91 inches Hg (1013.0 mb)
Winds: calm
Visibility: 4 miles ( 7 km)
Ceiling: at least 12,000 feet AGL
Clouds: few clouds at 2000 feet AGL
Weather: BR  (mist)

METAR text: MGSJ 161300Z 00000KT 6000 SKC 24/23 Q1012 A2988 BR
Conditions at: MGSJ (SAN JOSE (CIV/M , GT) observed 1300 UTC 16 February 2019
Temperature: 24.0°C (75°F)
Dewpoint: 23.0°C (73°F) [RH = 94%]
Pressure (altimeter): 29.88 inches Hg (1012.0 mb)
Winds: calm
Visibility: 4 miles ( 6 km)
Ceiling: at least 12,000 feet AGL
Clouds: clear skies
Weather: BR  (mist)

METAR text: MGSJ 161200Z 00000KT 8000 BKN018 25/24 Q1011 A2985 BR
Conditions at: MGSJ (SAN JOSE (CIV/M , GT) observed 1200 UTC 16 February 2019
Temperature: 25.0°C (77°F)
Dewpoint: 24.0°C (75°F) [RH = 94%]
Pressure (altimeter): 29.85 inches Hg (1011.0 mb)
Winds: calm
Visibility: 5 miles ( 8 km)
Ceiling: 1800 feet AGL
Clouds: broken clouds at 1800 feet AGL
Weather: BR  (mist)

METAR text: MGSJ 160000Z 23010KT 8000 SKC 29/25 Q1009 A2980 FU
Conditions at: MGSJ (SAN JOSE (CIV/M , GT) observed 0000 UTC 16 February 2019
Temperature: 29.0°C (84°F)
Dewpoint: 25.0°C (77°F) [RH = 79%]
Pressure (altimeter): 29.79 inches Hg (1009.0 mb)
Winds: from the SW (230 degrees) at 12 MPH (10 knots; 5.1 m/s)
Visibility: 5 miles ( 8 km)
Ceiling: at least 12,000 feet AGL
Clouds: clear skies
Weather: FU  (smoke)

METAR text: MGSJ 152300Z 24010KT 7000 SKC 30/24 Q1009 A2980 FU
Conditions at: MGSJ (SAN JOSE (CIV/M , GT) observed 2300 UTC 15 February 2019
Temperature: 30.0°C (86°F)
Dewpoint: 24.0°C (75°F) [RH = 70%]
Pressure (altimeter): 29.79 inches Hg (1009.0 mb)
Winds: from the WSW (240 degrees) at 12 MPH (10 knots; 5.1 m/s)
Visibility: 4 miles ( 7 km)
Ceiling: at least 12,000 feet AGL
Clouds: clear skies
Weather: FU  (smoke)

METAR text: MGSJ 152200Z 24012KT 5000 FU SKC 30/23 Q1009 A2980
Conditions at: MGSJ (SAN JOSE (CIV/M , GT) observed 2200 UTC 15 February 2019
Temperature: 30.0°C (86°F)
Dewpoint: 23.0°C (73°F) [RH = 66%]
Pressure (altimeter): 29.79 inches Hg (1009.0 mb)
Winds: from the WSW (240 degrees) at 14 MPH (12 knots; 6.2 m/s)
Visibility: 3 miles ( 5 km)
Ceiling: at least 12,000 feet AGL
Clouds: clear skies
Weather: FU  (smoke)

METAR text: MGSJ 152100Z 20014KT 4000 FU SKC 32/23 Q1009 A2980
Conditions at: MGSJ (SAN JOSE (CIV/M , GT) observed 2100 UTC 15 February 2019
Temperature: 32.0°C (90°F)
Dewpoint: 23.0°C (73°F) [RH = 59%]
Pressure (altimeter): 29.79 inches Hg (1009.0 mb)
Winds: from the SSW (200 degrees) at 16 MPH (14 knots; 7.2 m/s)
Visibility: 2.49 miles (4.01 km)
Ceiling: at least 12,000 feet AGL
Clouds: clear skies
Weather: FU  (smoke)

METAR text: MGSJ 152000Z 24014KT 4000 FU SKC 32/24 Q1010 A2983
Conditions at: MGSJ (SAN JOSE (CIV/M , GT) observed 2000 UTC 15 February 2019
Temperature: 32.0°C (90°F)
Dewpoint: 24.0°C (75°F) [RH = 63%]
Pressure (altimeter): 29.82 inches Hg (1010.0 mb)
Winds: from the WSW (240 degrees) at 16 MPH (14 knots; 7.2 m/s)
Visibility: 2.49 miles (4.01 km)
Ceiling: at least 12,000 feet AGL
Clouds: clear skies
Weather: FU  (smoke)

METAR text: MGSJ 151900Z 25012KT 8000 SKC 33/24 Q1011 A2985 FU
Conditions at: MGSJ (SAN JOSE (CIV/M , GT) observed 1900 UTC 15 February 2019
Temperature: 33.0°C (91°F)
Dewpoint: 24.0°C (75°F) [RH = 59%]
Pressure (altimeter): 29.85 inches Hg (1011.0 mb)
Winds: from the WSW (250 degrees) at 14 MPH (12 knots; 6.2 m/s)
Visibility: 5 miles ( 8 km)
Ceiling: at least 12,000 feet AGL
Clouds: clear skies
Weather: FU  (smoke)

METAR text: MGSJ 151800Z 25012KT 6000 SKC 32/24 Q1012 A2988 FU
Conditions at: MGSJ (SAN JOSE (CIV/M , GT) observed 1800 UTC 15 February 2019
Temperature: 32.0°C (90°F)
Dewpoint: 24.0°C (75°F) [RH = 63%]
Pressure (altimeter): 29.88 inches Hg (1012.0 mb)
Winds: from the WSW (250 degrees) at 14 MPH (12 knots; 6.2 m/s)
Visibility: 4 miles ( 6 km)
Ceiling: at least 12,000 feet AGL
Clouds: clear skies
Weather: FU  (smoke)

METAR text: MGSJ 151700Z 27012KT 7000 SKC 33/22 Q1013 A2991 FU
Conditions at: MGSJ (SAN JOSE (CIV/M , GT) observed 1700 UTC 15 February 2019
Temperature: 33.0°C (91°F)
Dewpoint: 22.0°C (72°F) [RH = 53%]
Pressure (altimeter): 29.91 inches Hg (1013.0 mb)
Winds: from the W (270 degrees) at 14 MPH (12 knots; 6.2 m/s)
Visibility: 4 miles ( 7 km)
Ceiling: at least 12,000 feet AGL
Clouds: clear skies
Weather: FU  (smoke)

METAR text: MGSJ 151600Z 32012KT 4000 FU SKC 31/23 Q1014 A2994
Conditions at: MGSJ (SAN JOSE (CIV/M , GT) observed 1600 UTC 15 February 2019
Temperature: 31.0°C (88°F)
Dewpoint: 23.0°C (73°F) [RH = 63%]
Pressure (altimeter): 29.94 inches Hg (1014.0 mb)
Winds: from the NW (320 degrees) at 14 MPH (12 knots; 6.2 m/s)
Visibility: 2.49 miles (4.01 km)
Ceiling: at least 12,000 feet AGL
Clouds: clear skies
Weather: FU  (smoke)

METAR text: MGSJ 151500Z 00000KT 7000 SKC 27/23 Q1014 A2994 FU
Conditions at: MGSJ (SAN JOSE (CIV/M , GT) observed 1500 UTC 15 February 2019
Temperature: 27.0°C (81°F)
Dewpoint: 23.0°C (73°F) [RH = 79%]
Pressure (altimeter): 29.94 inches Hg (1014.0 mb)
Winds: calm
Visibility: 4 miles ( 7 km)
Ceiling: at least 12,000 feet AGL
Clouds: clear skies
Weather: FU  (smoke)

METAR text: MGSJ 151400Z 00000KT 7000 SKC 24/22 Q1013 A2991 BR
Conditions at: MGSJ (SAN JOSE (CIV/M , GT) observed 1400 UTC 15 February 2019
Temperature: 24.0°C (75°F)
Dewpoint: 22.0°C (72°F) [RH = 89%]
Pressure (altimeter): 29.91 inches Hg (1013.0 mb)
Winds: calm
Visibility: 4 miles ( 7 km)
Ceiling: at least 12,000 feet AGL
Clouds: clear skies
Weather: BR  (mist)

METAR text: MGSJ 151300Z 00000KT 4000 BR SKC 22/21 Q1013 A2991
Conditions at: MGSJ (SAN JOSE (CIV/M , GT) observed 1300 UTC 15 February 2019
Temperature: 22.0°C (72°F)
Dewpoint: 21.0°C (70°F) [RH = 94%]
Pressure (altimeter): 29.91 inches Hg (1013.0 mb)
Winds: calm
Visibility: 2.49 miles (4.01 km)
Ceiling: at least 12,000 feet AGL
Clouds: clear skies
Weather: BR  (mist)

METAR text: MGSJ 151200Z 00000KT 2000 BR SKC 21/20 Q1012 A2988 APCH CLSD
Conditions at: MGSJ (SAN JOSE (CIV/M , GT) observed 1200 UTC 15 February 2019
Temperature: 21.0°C (70°F)
Dewpoint: 20.0°C (68°F) [RH = 94%]
Pressure (altimeter): 29.88 inches Hg (1012.0 mb)
Winds: calm
Visibility: 1.24 miles (2.00 km)
Ceiling: at least 12,000 feet AGL
Clouds: clear skies
Weather: BR  (mist)

Forecast for: MGSJ (SAN JOSE (CIV/M , GT)
Text: MGSJ 161700Z 1618/1718 18008KT 7000 SCT018 TX34/1620Z TN21/1712Z
Forecast period: 1800 to 2000 UTC 16 February 2019
Forecast type: FROM: standard forecast or significant change
Winds: from the S (180 degrees) at 9 MPH (8 knots; 4.1 m/s)
Visibility: 4 miles (7 km)
Ceiling: at least 12,000 feet AGL
Clouds: scattered clouds at 1800 feet AGL
Weather: no significant weather forecast for this period
Text: BECMG 1620/1622 24010KT SCT020TCU
Forecast period: 2000 UTC 16 February 2019 to 0200 UTC 17 February 2019
Forecast type: BECOMING: Conditions expected to become as follows by 2200 UTC 16 February 2019
Winds: from the WSW (240 degrees) at 12 MPH (10 knots; 5.1 m/s)
Visibility: 4 miles (7 km)
Ceiling: at least 12,000 feet AGL
Clouds: scattered clouds at 2000 feet AGL
Weather: no significant weather forecast for this period
Text: BECMG 1702/1704 00000KT CAVOK
Forecast period: 0200 to 1500 UTC 17 February 2019
Forecast type: BECOMING: Conditions expected to become as follows by 0400 UTC 17 February 2019
Winds: calm
Visibility: 6 or more miles 10+ km)
Ceiling: unknown
Clouds: missing
Weather: NSW  (no significant weather)
Text: PROB40 1708/1713 5000 BR
Forecast period: 0800 to 1300 UTC 17 February 2019
Forecast type: PROBABLE: 40 percent likelihood of the following during this time
Visibility: 3 miles (5 km)
Ceiling: unknown
Clouds: missing
Weather: BR  (mist)
Text: BECMG 1715/1717 18008KT 8000 FEW018
Forecast period: 1500 to 1800 UTC 17 February 2019
Forecast type: BECOMING: Conditions expected to become as follows by 1700 UTC 17 February 2019
Winds: from the S (180 degrees) at 9 MPH (8 knots; 4.1 m/s)
Visibility: 5 miles (8 km)
Ceiling: at least 12,000 feet AGL
Clouds: few clouds at 1800 feet AGL
Weather: NSW  (no significant weather)